Time;durP1;ratioP1;P1;durP2;ratioP2;P2;SDS_P1;SDS_P2;PMS_P1;PMS_P2;Temp;Humidity;BMP_temperature;BMP_pressure;BME280_temperature;BME280_humidity;BME280_pressure;Samples;Min_cycle;Max_cycle;Signal;HPM_P1;HPM_P2
2024/03/19 00:00:35;;;;;;;27.02;14.85;;;;;;;7.98;100.00;101603.91;5044060;28;20361;-65
2024/03/19 00:03:00;;;;;;;27.38;15.30;;;;;;;8.02;100.00;101604.06;5047347;28;20029;-65
2024/03/19 00:05:25;;;;;;;26.27;14.88;;;;;;;7.95;100.00;101594.22;5043865;28;20044;-67
2024/03/19 00:07:51;;;;;;;28.23;16.10;;;;;;;8.03;100.00;101592.66;5046146;28;20029;-64
2024/03/19 00:10:16;;;;;;;25.75;14.40;;;;;;;7.95;100.00;101583.66;5045497;28;20100;-63
2024/03/19 00:12:42;;;;;;;25.90;14.45;;;;;;;7.84;100.00;101583.38;5044728;28;20036;-68
2024/03/19 00:15:09;;;;;;;29.00;16.88;;;;;;;7.90;100.00;101587.91;5046242;28;20126;-70
2024/03/19 00:17:34;;;;;;;27.30;16.15;;;;;;;7.98;100.00;101589.03;5043933;28;20575;-66
2024/03/19 00:20:00;;;;;;;27.10;15.23;;;;;;;8.02;100.00;101583.00;5046922;28;20231;-65
2024/03/19 00:22:25;;;;;;;30.33;18.05;;;;;;;8.10;100.00;101580.53;5043719;28;20030;-64
2024/03/19 00:24:51;;;;;;;28.50;17.85;;;;;;;8.20;100.00;101577.28;5045697;28;20188;-65
2024/03/19 00:27:16;;;;;;;29.60;17.75;;;;;;;8.31;100.00;101580.19;5044971;28;20067;-63
2024/03/19 00:29:41;;;;;;;29.35;18.27;;;;;;;8.37;100.00;101575.09;5026552;28;20026;-63
2024/03/19 00:32:07;;;;;;;28.63;17.42;;;;;;;8.34;100.00;101571.47;5046263;28;20025;-66
2024/03/19 00:34:32;;;;;;;29.38;17.27;;;;;;;8.31;100.00;101574.94;5041834;28;20425;-68
2024/03/19 00:36:59;;;;;;;27.63;17.17;;;;;;;8.27;100.00;101569.53;5046652;28;20040;-64
2024/03/19 00:39:25;;;;;;;28.10;16.15;;;;;;;8.27;100.00;101567.81;5043515;28;20465;-64
2024/03/19 00:41:50;;;;;;;29.83;16.65;;;;;;;8.24;100.00;101567.72;5045386;28;20060;-64
2024/03/19 00:44:16;;;;;;;28.90;17.10;;;;;;;8.32;100.00;101574.09;5045114;28;20032;-64
2024/03/19 00:46:41;;;;;;;32.20;19.27;;;;;;;8.44;100.00;101575.25;5044339;28;20438;-63
2024/03/19 00:49:07;;;;;;;30.02;17.88;;;;;;;8.36;100.00;101570.69;5045700;28;20076;-64
2024/03/19 00:51:32;;;;;;;27.55;16.90;;;;;;;8.39;100.00;101572.50;5042831;28;20488;-63
2024/03/19 00:53:58;;;;;;;29.67;18.25;;;;;;;8.30;100.00;101573.16;5046011;28;20431;-74
2024/03/19 00:56:23;;;;;;;30.80;17.88;;;;;;;8.30;100.00;101572.25;5043693;28;20036;-71
2024/03/19 00:58:49;;;;;;;29.77;18.58;;;;;;;8.35;100.00;101566.25;5045152;28;20460;-74
2024/03/19 01:01:14;;;;;;;29.70;18.60;;;;;;;8.46;100.00;101568.28;5044633;28;20044;-74
2024/03/19 01:03:40;;;;;;;31.67;20.50;;;;;;;8.51;100.00;101571.94;5043420;28;20053;-74
2024/03/19 01:06:05;;;;;;;32.58;20.45;;;;;;;8.57;100.00;101566.81;5045965;28;20040;-74
2024/03/19 01:08:30;;;;;;;31.38;19.92;;;;;;;8.63;100.00;101568.72;5042802;28;20126;-74
2024/03/19 01:11:01;;;;;;;31.83;20.00;;;;;;;8.71;100.00;101568.03;5045505;28;20032;-73
2024/03/19 01:13:26;;;;;;;32.25;20.30;;;;;;;8.69;100.00;101572.41;5042982;28;20028;-63
2024/03/19 01:15:51;;;;;;;31.35;19.63;;;;;;;8.69;100.00;101569.75;5044736;28;20120;-63
2024/03/19 01:18:17;;;;;;;31.50;20.08;;;;;;;8.70;100.00;101568.00;5043932;28;20448;-64
2024/03/19 01:20:42;;;;;;;32.60;20.67;;;;;;;8.70;100.00;101568.88;5043536;28;20484;-63
2024/03/19 01:23:07;;;;;;;29.92;19.77;;;;;;;8.70;100.00;101566.25;5045430;28;20041;-63
2024/03/19 01:25:33;;;;;;;31.25;19.92;;;;;;;8.69;100.00;101561.84;5042191;28;20085;-63
2024/03/19 01:27:58;;;;;;;32.05;20.30;;;;;;;8.73;100.00;101571.59;5045488;28;20120;-64
2024/03/19 01:30:23;;;;;;;31.67;19.65;;;;;;;8.75;100.00;101568.97;5043113;28;20061;-66
2024/03/19 01:32:49;;;;;;;32.42;20.05;;;;;;;8.75;100.00;101571.63;5044565;28;20116;-63
2024/03/19 01:35:14;;;;;;;32.50;19.10;;;;;;;8.76;100.00;101569.91;5043844;28;20120;-63
2024/03/19 01:37:39;;;;;;;30.73;19.77;;;;;;;8.71;100.00;101565.41;5042597;28;20080;-63
2024/03/19 01:40:07;;;;;;;31.50;20.30;;;;;;;8.73;100.00;101571.59;5045451;28;20029;-64
2024/03/19 01:42:32;;;;;;;30.25;19.30;;;;;;;8.67;100.00;101567.94;5041903;28;20033;-65
2024/03/19 01:45:12;;;;;;;33.63;19.20;;;;;;;8.67;100.00;101573.22;5043860;28;20040;-64
2024/03/19 01:47:39;;;;;;;29.23;17.85;;;;;;;8.60;100.00;101572.16;5039361;28;20067;-64
2024/03/19 01:50:09;;;;;;;30.63;18.25;;;;;;;8.59;100.00;101573.03;5045254;28;20025;-65
2024/03/19 01:52:41;;;;;;;28.05;17.58;;;;;;;8.61;100.00;101575.72;5041793;28;20056;-64
2024/03/19 01:55:07;;;;;;;29.77;17.90;;;;;;;8.54;100.00;101572.91;5044913;28;20037;-63
2024/03/19 01:57:33;;;;;;;28.83;17.80;;;;;;;8.53;100.00;101568.50;5041810;28;20488;-64
2024/03/19 01:59:58;;;;;;;29.15;17.95;;;;;;;8.49;100.00;101573.63;5044800;28;20037;-64
2024/03/19 02:02:36;;;;;;;29.23;18.38;;;;;;;8.56;100.00;101578.19;5041599;28;20508;-67
2024/03/19 02:05:04;;;;;;;31.20;18.75;;;;;;;8.55;100.00;101573.81;5037930;28;20468;-71
2024/03/19 02:07:30;;;;;;;31.33;19.23;;;;;;;8.59;100.00;101573.03;5043784;28;20052;-67
2024/03/19 02:09:55;;;;;;;30.33;19.05;;;;;;;8.63;100.00;101568.72;5042202;28;20067;-64
2024/03/19 02:12:25;;;;;;;30.20;18.98;;;;;;;8.69;100.00;101572.41;5042539;28;20042;-64
2024/03/19 02:14:51;;;;;;;31.95;19.45;;;;;;;8.66;100.00;101572.28;5042628;28;20032;-64
2024/03/19 02:17:18;;;;;;;29.60;18.55;;;;;;;8.66;100.00;101572.28;5043062;28;20029;-64
2024/03/19 02:19:43;;;;;;;31.42;19.35;;;;;;;8.67;100.00;101568.81;5042162;28;20037;-68
2024/03/19 02:22:10;;;;;;;31.48;19.50;;;;;;;8.68;100.00;101573.25;5042092;28;20028;-64
2024/03/19 02:24:40;;;;;;;31.05;19.90;;;;;;;8.69;100.00;101571.47;5044223;28;20544;-69
2024/03/19 02:27:05;;;;;;;32.13;19.98;;;;;;;8.68;100.00;101577.63;5041151;28;20061;-67
2024/03/19 02:29:32;;;;;;;32.95;20.65;;;;;;;8.68;100.00;101570.59;5044671;28;20052;-72
2024/03/19 02:31:57;;;;;;;30.67;19.63;;;;;;;8.68;100.00;101575.00;5023529;28;20366;-73
2024/03/19 02:34:23;;;;;;;32.10;19.75;;;;;;;8.68;100.00;101570.59;5043702;28;20083;-72
2024/03/19 02:36:48;;;;;;;32.70;19.98;;;;;;;8.71;100.00;101577.69;5042761;28;20040;-72
2024/03/19 02:39:13;;;;;;;31.48;19.40;;;;;;;8.71;100.00;101569.78;5042346;28;20082;-73
2024/03/19 02:41:39;;;;;;;31.98;20.20;;;;;;;8.71;100.00;101569.78;5043906;28;20029;-71
2024/03/19 02:44:05;;;;;;;32.97;21.42;;;;;;;8.71;100.00;101565.41;5040820;28;20045;-64
2024/03/19 02:46:30;;;;;;;31.98;21.23;;;;;;;8.73;100.00;101568.94;5044141;28;20048;-65
2024/03/19 02:48:56;;;;;;;32.83;21.40;;;;;;;8.76;100.00;101564.63;5041422;28;20030;-71
2024/03/19 02:51:21;;;;;;;35.30;22.30;;;;;;;8.78;100.00;101565.53;5042948;28;20035;-75
2024/03/19 02:53:47;;;;;;;32.63;20.75;;;;;;;8.79;100.00;101576.13;5042334;28;20102;-75
2024/03/19 02:56:12;;;;;;;33.13;21.80;;;;;;;8.80;100.00;101577.03;5041960;28;20057;-75
2024/03/19 02:58:37;;;;;;;33.45;21.40;;;;;;;8.84;100.00;101570.94;5043794;28;20082;-74
2024/03/19 03:01:03;;;;;;;33.83;21.77;;;;;;;8.84;100.00;101571.84;5040574;28;20061;-74
2024/03/19 03:03:28;;;;;;;32.80;21.73;;;;;;;8.85;100.00;101572.72;5043911;28;20486;-74
2024/03/19 03:05:54;;;;;;;33.53;21.25;;;;;;;8.86;100.00;101574.53;5041663;28;20029;-74
2024/03/19 03:08:19;;;;;;;32.55;20.77;;;;;;;8.86;100.00;101574.53;5042539;28;20041;-75
2024/03/19 03:10:44;;;;;;;33.70;21.00;;;;;;;8.85;100.00;101568.38;5042740;28;20030;-75
2024/03/19 03:13:10;;;;;;;33.53;21.52;;;;;;;8.89;100.00;101570.19;5042175;28;20033;-76
2024/03/19 03:15:35;;;;;;;33.63;20.65;;;;;;;8.90;100.00;101577.25;5047824;28;20055;-68
2024/03/19 03:18:00;;;;;;;33.05;19.95;;;;;;;8.91;100.00;101578.13;5044743;28;20044;-65
2024/03/19 03:20:26;;;;;;;32.10;20.25;;;;;;;8.96;100.00;101575.63;5047345;28;20033;-64
2024/03/19 03:22:52;;;;;;;31.95;19.38;;;;;;;8.95;100.00;101569.44;5045719;28;20047;-64
2024/03/19 03:25:17;;;;;;;32.97;19.80;;;;;;;8.99;100.00;101580.97;5045949;28;20124;-64
2024/03/19 03:27:43;;;;;;;31.27;19.15;;;;;;;9.00;100.00;101573.09;5046989;28;20032;-65
2024/03/19 03:30:10;;;;;;;31.25;19.13;;;;;;;9.01;100.00;101580.16;5045344;28;20025;-65
2024/03/19 03:32:37;;;;;;;30.35;18.92;;;;;;;9.00;100.00;101581.00;5047681;28;20115;-63
2024/03/19 03:35:07;;;;;;;30.80;18.65;;;;;;;9.03;100.00;101578.44;5044130;28;20057;-66
2024/03/19 03:37:34;;;;;;;30.67;18.25;;;;;;;9.04;100.00;101580.22;5040682;28;20504;-66
2024/03/19 03:40:00;;;;;;;30.55;17.60;;;;;;;9.05;100.00;101584.63;5046206;28;20037;-64
2024/03/19 03:42:25;;;;;;;29.67;17.42;;;;;;;9.05;100.00;101581.09;5044906;28;20030;-65
2024/03/19 03:44:50;;;;;;;29.92;17.48;;;;;;;9.06;100.00;101586.41;5046353;28;20116;-64
2024/03/19 03:47:16;;;;;;;29.10;16.30;;;;;;;9.07;100.00;101585.56;5045961;28;20021;-64
2024/03/19 03:49:41;;;;;;;29.55;16.33;;;;;;;9.10;100.00;101583.84;5044719;28;20029;-64
2024/03/19 03:52:09;;;;;;;30.05;16.45;;;;;;;9.11;100.00;101586.50;5047599;28;20099;-66
2024/03/19 03:54:35;;;;;;;28.90;16.65;;;;;;;9.14;100.00;101585.69;5043938;28;20067;-64
2024/03/19 03:57:00;;;;;;;28.17;15.77;;;;;;;9.15;100.00;101590.13;5047182;28;20056;-64
2024/03/19 03:59:27;;;;;;;28.92;15.98;;;;;;;9.14;100.00;101589.22;5044588;28;20037;-66
2024/03/19 04:01:53;;;;;;;28.60;15.73;;;;;;;9.17;100.00;101601.59;5046035;28;20480;-64
2024/03/19 04:04:19;;;;;;;29.13;15.57;;;;;;;9.17;100.00;101591.91;5045175;28;20083;-64
2024/03/19 04:06:44;;;;;;;29.27;16.10;;;;;;;9.17;100.00;101597.19;5045335;28;20431;-64
2024/03/19 04:09:10;;;;;;;29.33;15.70;;;;;;;9.17;100.00;101594.56;5046527;28;20610;-64
2024/03/19 04:11:35;;;;;;;29.92;15.90;;;;;;;9.19;100.00;101594.63;5043534;28;20445;-64
2024/03/19 04:14:00;;;;;;;27.48;15.07;;;;;;;9.19;100.00;101602.53;5039698;28;20087;-65
2024/03/19 04:16:26;;;;;;;29.00;15.80;;;;;;;9.17;100.00;101596.31;5045026;28;20506;-66
2024/03/19 04:18:51;;;;;;;27.90;15.75;;;;;;;9.16;100.00;101599.78;5044751;28;20029;-64
2024/03/19 04:21:17;;;;;;;28.23;15.32;;;;;;;9.16;100.00;101602.44;5045016;28;20037;-64
2024/03/19 04:23:42;;;;;;;28.60;15.35;;;;;;;9.17;100.00;101601.59;5045618;28;20041;-67
2024/03/19 04:26:07;;;;;;;27.52;15.05;;;;;;;9.18;100.00;101603.38;5043196;28;20040;-69
2024/03/19 04:28:33;;;;;;;28.90;14.98;;;;;;;9.17;100.00;101601.59;5046815;28;20021;-64
2024/03/19 04:30:58;;;;;;;29.90;16.10;;;;;;;9.18;100.00;101598.09;5043535;28;20028;-65
2024/03/19 04:33:24;;;;;;;27.63;15.18;;;;;;;9.17;100.00;101604.22;5045846;28;20026;-66
2024/03/19 04:35:50;;;;;;;26.77;15.23;;;;;;;9.19;100.00;101610.44;5044422;28;20040;-65
2024/03/19 04:38:16;;;;;;;29.73;15.85;;;;;;;9.21;100.00;101611.34;5044283;28;20468;-65
2024/03/19 04:40:42;;;;;;;29.08;15.95;;;;;;;9.18;100.00;101606.00;5046154;28;20392;-69
2024/03/19 04:43:07;;;;;;;29.90;17.23;;;;;;;9.18;100.00;101606.00;5043188;28;20426;-66
2024/03/19 04:45:32;;;;;;;29.80;17.15;;;;;;;9.19;100.00;101610.44;5046517;28;20091;-68
2024/03/19 04:47:58;;;;;;;30.23;17.10;;;;;;;9.17;100.00;101602.47;5043460;28;20381;-66
2024/03/19 04:50:24;;;;;;;29.92;17.60;;;;;;;9.17;100.00;101599.81;5045228;28;20029;-64
2024/03/19 04:52:52;;;;;;;30.13;16.75;;;;;;;9.15;100.00;101608.59;5044400;28;20036;-73
2024/03/19 04:55:17;;;;;;;29.10;17.58;;;;;;;9.14;100.00;101607.69;5044657;28;20043;-69
2024/03/19 04:57:43;;;;;;;30.05;17.75;;;;;;;9.16;100.00;101603.34;5045273;28;20108;-72
2024/03/19 05:00:13;;;;;;;31.33;17.02;;;;;;;9.17;100.00;101601.59;5041730;28;20026;-71
2024/03/19 05:02:38;;;;;;;31.42;17.58;;;;;;;9.16;100.00;101608.63;5046211;28;20082;-72
2024/03/19 05:05:04;;;;;;;30.50;17.77;;;;;;;9.15;100.00;101604.19;5042777;28;20392;-71
2024/03/19 05:07:29;;;;;;;30.33;17.17;;;;;;;9.16;100.00;101605.06;5045534;28;20434;-71
2024/03/19 05:09:55;;;;;;;29.05;16.92;;;;;;;9.16;100.00;101607.72;5043518;28;20028;-74
2024/03/19 05:12:21;;;;;;;31.58;17.45;;;;;;;9.15;100.00;101606.81;5044580;28;20041;-75
2024/03/19 05:14:46;;;;;;;29.88;17.40;;;;;;;9.12;100.00;101600.59;5044553;28;20033;-72
2024/03/19 05:17:12;;;;;;;29.50;17.50;;;;;;;9.12;100.00;101608.53;5043396;28;20029;-75
2024/03/19 05:19:38;;;;;;;29.38;16.67;;;;;;;9.11;100.00;101601.47;5045575;28;20044;-73
2024/03/19 05:22:03;;;;;;;28.85;17.08;;;;;;;9.11;100.00;101609.38;5042379;28;20030;-72
2024/03/19 05:24:29;;;;;;;28.15;15.82;;;;;;;9.10;100.00;101600.56;5045083;28;20446;-66
2024/03/19 05:26:54;;;;;;;29.25;16.30;;;;;;;9.09;100.00;101601.41;5043180;28;20033;-66
2024/03/19 05:29:19;;;;;;;27.30;15.48;;;;;;;9.11;100.00;101609.38;5044158;28;20049;-64
2024/03/19 05:31:45;;;;;;;29.00;16.42;;;;;;;9.10;100.00;101610.22;5044407;28;20029;-64
2024/03/19 05:34:10;;;;;;;28.30;15.85;;;;;;;9.10;100.00;101607.56;5042434;28;20183;-67
2024/03/19 05:36:36;;;;;;;28.08;15.48;;;;;;;9.10;100.00;101605.84;5043404;28;20029;-64
2024/03/19 05:39:08;;;;;;;29.45;15.80;;;;;;;9.11;100.00;101617.28;5042016;28;20464;-66
2024/03/19 05:41:34;;;;;;;28.70;15.60;;;;;;;9.12;100.00;101613.81;5045378;28;20029;-65
2024/03/19 05:43:59;;;;;;;28.58;15.30;;;;;;;9.12;100.00;101619.06;5041115;28;20038;-64
2024/03/19 05:46:25;;;;;;;28.27;16.02;;;;;;;9.13;100.00;101626.09;5043152;28;20029;-64
2024/03/19 05:48:51;;;;;;;28.10;15.05;;;;;;;9.14;100.00;101619.97;5043200;28;20044;-68
2024/03/19 05:51:16;;;;;;;27.52;14.95;;;;;;;9.14;100.00;101622.63;5043186;28;20100;-63
2024/03/19 05:53:41;;;;;;;25.83;14.27;;;;;;;9.16;100.00;101620.91;5044294;28;20112;-64
2024/03/19 05:56:08;;;;;;;29.05;14.85;;;;;;;9.16;100.00;101624.44;5041867;28;20080;-67
2024/03/19 05:58:34;;;;;;;26.23;13.95;;;;;;;9.16;100.00;101616.53;5045262;28;20482;-66
2024/03/19 06:01:00;;;;;;;27.02;13.88;;;;;;;9.17;100.00;101623.56;5041850;28;20029;-63
2024/03/19 06:03:25;;;;;;;28.10;13.93;;;;;;;9.15;100.00;101620.00;5043840;28;20424;-63
2024/03/19 06:06:08;;;;;;;26.40;13.65;;;;;;;9.17;100.00;101628.84;5043159;28;20029;-64
2024/03/19 06:08:34;;;;;;;;;;;;;;;9.33;100.00;101634.47;5045534;28;20391;-64
2024/03/19 06:10:59;;;;;;;29.08;14.15;;;;;;;9.21;100.00;101619.25;5041610;28;20469;-63
2024/03/19 06:13:25;;;;;;;27.92;13.32;;;;;;;9.22;100.00;101635.13;5026142;28;20061;-67
2024/03/19 06:15:50;;;;;;;28.27;14.13;;;;;;;9.24;100.00;101629.88;5043293;28;20048;-64
2024/03/19 06:18:16;;;;;;;27.90;13.65;;;;;;;9.24;100.00;101640.44;5042440;28;20021;-74
2024/03/19 06:20:42;;;;;;;27.58;13.95;;;;;;;9.23;100.00;101636.00;5044124;28;20557;-75
2024/03/19 06:23:07;;;;;;;25.50;13.60;;;;;;;9.25;100.00;101642.22;5041191;28;20033;-75
2024/03/19 06:25:35;;;;;;;29.27;13.77;;;;;;;9.27;100.00;101634.34;5044430;28;20526;-74
2024/03/19 06:28:00;;;;;;;28.60;14.38;;;;;;;9.29;100.00;101641.44;5041505;28;20030;-74
2024/03/19 06:30:26;;;;;;;28.17;14.30;;;;;;;9.33;100.00;101640.63;5043700;28;20033;-75
2024/03/19 06:32:51;;;;;;;28.83;14.40;;;;;;;9.33;100.00;101643.28;5042516;28;20028;-74
2024/03/19 06:35:16;;;;;;;28.95;13.80;;;;;;;9.34;100.00;101647.69;5041111;28;20112;-74
2024/03/19 06:37:42;;;;;;;27.08;13.73;;;;;;;9.36;100.00;101645.09;5043858;28;20380;-74
2024/03/19 06:40:10;;;;;;;28.23;13.25;;;;;;;9.39;100.00;101651.34;5039674;28;20030;-74
2024/03/19 06:42:36;;;;;;;27.52;13.75;;;;;;;9.40;100.00;101649.59;5037477;28;20108;-75
2024/03/19 06:45:03;;;;;;;27.20;14.00;;;;;;;9.41;100.00;101643.47;5044126;28;20110;-75
2024/03/19 06:47:29;;;;;;;27.75;13.45;;;;;;;9.42;100.00;101638.22;5041123;28;20033;-75
2024/03/19 06:49:54;;;;;;;26.65;13.30;;;;;;;9.47;100.00;101645.34;5043147;28;20029;-75
2024/03/19 06:52:19;;;;;;;26.25;12.75;;;;;;;9.50;100.00;101648.03;5041282;28;20031;-74
2024/03/19 06:54:45;;;;;;;26.30;12.80;;;;;;;9.54;100.00;101644.63;5041710;28;20033;-75
2024/03/19 06:57:10;;;;;;;26.65;12.70;;;;;;;9.60;100.00;101650.91;5043878;28;20057;-75
2024/03/19 06:59:36;;;;;;;25.90;13.00;;;;;;;9.66;100.00;101646.63;5040647;28;20383;-64
2024/03/19 07:02:06;;;;;;;25.80;12.70;;;;;;;9.70;100.00;101640.56;5044138;28;20147;-73
2024/03/19 07:04:32;;;;;;;25.48;12.30;;;;;;;9.74;100.00;101643.28;5040844;28;20064;-75
2024/03/19 07:06:58;;;;;;;25.33;12.30;;;;;;;9.77;100.00;101637.16;5043309;28;20059;-74
2024/03/19 07:09:24;;;;;;;25.77;12.10;;;;;;;9.84;100.00;101651.38;5040587;28;20029;-75
2024/03/19 07:11:50;;;;;;;23.88;11.65;;;;;;;9.91;100.00;101645.38;5042472;28;20041;-74
2024/03/19 07:14:15;;;;;;;26.90;11.98;;;;;;;9.97;100.00;101650.75;5042918;28;20090;-75
2024/03/19 07:16:40;;;;;;;25.75;12.07;;;;;;;10.03;100.00;101645.63;5040988;28;20034;-74
2024/03/19 07:19:06;;;;;;;25.02;11.50;;;;;;;10.12;100.00;101639.63;5044250;28;20494;-73
2024/03/19 07:21:33;;;;;;;24.35;11.15;;;;;;;10.23;100.00;101645.97;5040647;28;20033;-71
2024/03/19 07:23:59;;;;;;;26.40;11.90;;;;;;;10.29;100.00;101643.47;5043201;28;20494;-74
2024/03/19 07:26:24;;;;;;;24.15;10.50;;;;;;;10.37;100.00;101648.91;5041629;28;20033;-68
2024/03/19 07:28:50;;;;;;;24.65;10.90;;;;;;;10.42;100.00;101643.72;5042091;28;20045;-71
2024/03/19 07:31:15;;;;;;;23.77;10.98;;;;;;;10.48;100.00;101651.72;5042971;28;20040;-66
2024/03/19 07:33:41;;;;;;;24.58;10.93;;;;;;;10.53;100.00;101644.78;5040736;28;20040;-67
2024/03/19 07:36:06;;;;;;;25.33;11.27;;;;;;;10.56;100.00;101644.84;5037637;28;20052;-69
2024/03/19 07:38:31;;;;;;;24.27;10.65;;;;;;;10.64;100.00;101650.25;5042879;28;20037;-74
2024/03/19 07:40:57;;;;;;;23.20;10.30;;;;;;;10.71;100.00;101648.59;5040406;28;20026;-65
2024/03/19 07:43:22;;;;;;;24.38;10.07;;;;;;;10.77;100.00;101648.69;5043905;28;20112;-66
2024/03/19 07:45:48;;;;;;;24.25;10.20;;;;;;;10.90;100.00;101648.03;5040862;28;20065;-66
2024/03/19 07:48:15;;;;;;;23.08;9.50;;;;;;;11.01;100.00;101649.94;5041263;28;20029;-67
2024/03/19 07:50:40;;;;;;;23.08;9.88;;;;;;;11.12;100.00;101651.00;5038808;28;20123;-66
2024/03/19 07:53:06;;;;;;;22.88;9.30;;;;;;;11.29;100.00;101653.91;5043674;28;20103;-65
2024/03/19 07:55:31;;;;;;;22.83;8.73;;;;;;;11.48;100.00;101652.41;5041661;28;20029;-66
2024/03/19 07:57:57;;;;;;;21.73;8.38;;;;;;;11.46;100.00;101648.81;5040991;28;20428;-71
2024/03/19 08:00:22;;;;;;;21.55;8.48;;;;;;;11.50;100.00;101648.91;5043258;28;20033;-65
2024/03/19 08:02:48;;;;;;;22.60;8.30;;;;;;;11.57;100.00;101647.22;5046032;28;20022;-64
2024/03/19 08:05:13;;;;;;;22.92;8.50;;;;;;;11.62;100.00;101649.91;5046477;28;20035;-63
2024/03/19 08:07:43;;;;;;;22.83;8.10;;;;;;;11.66;100.00;101646.44;5043782;28;20043;-68
2024/03/19 08:10:09;;;;;;;21.70;7.90;;;;;;;11.55;100.00;101653.34;5045799;28;20494;-63
2024/03/19 08:12:35;;;;;;;22.10;7.78;;;;;;;11.57;100.00;101657.81;5043692;28;20037;-65
2024/03/19 08:15:02;;;;;;;22.23;7.32;;;;;;;11.61;100.00;101662.28;5046741;28;20135;-63
2024/03/19 08:17:28;;;;;;;21.65;7.40;;;;;;;11.64;100.00;101664.97;5044215;28;20400;-65
2024/03/19 08:19:54;;;;;;;20.88;7.18;;;;;;;11.69;100.00;101665.03;5045792;28;20029;-63
2024/03/19 08:22:20;;;;;;;22.90;7.50;;;;;;;11.78;100.00;101662.50;5042905;28;20077;-63
2024/03/19 08:24:46;;;;;;;22.15;6.90;;;;;;;11.84;100.00;101657.28;5045130;28;20106;-64
2024/03/19 08:27:12;;;;;;;20.45;6.90;;;;;;;11.89;100.00;101667.03;5044631;28;20423;-64
2024/03/19 08:29:38;;;;;;;21.83;7.10;;;;;;;11.81;100.00;101662.53;5046359;28;20036;-64
2024/03/19 08:32:04;;;;;;;21.83;7.18;;;;;;;11.78;100.00;101658.94;5042665;28;20026;-64
2024/03/19 08:34:29;;;;;;;22.23;6.90;;;;;;;11.75;100.00;101662.47;5046800;28;20037;-64
2024/03/19 08:36:55;;;;;;;21.08;6.93;;;;;;;11.76;100.00;101658.94;5042782;28;20026;-66
2024/03/19 08:39:20;;;;;;;22.17;6.95;;;;;;;11.74;100.00;101665.97;5045823;28;20041;-64
2024/03/19 08:41:46;;;;;;;21.23;6.75;;;;;;;11.75;100.00;101665.13;5044311;28;20031;-64
2024/03/19 08:44:12;;;;;;;22.80;6.78;;;;;;;11.81;100.00;101659.91;5044530;28;20030;-64
2024/03/19 08:46:37;;;;;;;19.35;6.25;;;;;;;11.98;100.00;101660.09;5045425;28;20025;-64
2024/03/19 08:49:03;;;;;;;20.23;6.05;;;;;;;12.04;100.00;101664.59;5043449;28;20034;-64
2024/03/19 08:51:31;;;;;;;19.75;6.50;;;;;;;12.03;100.00;101662.84;5046623;28;20029;-71
2024/03/19 08:53:57;;;;;;;22.60;6.25;;;;;;;12.06;100.00;101668.16;5039012;28;20037;-64
2024/03/19 08:56:23;;;;;;;20.02;5.80;;;;;;;12.05;100.00;101676.97;5045903;28;20037;-64
2024/03/19 08:58:48;;;;;;;19.52;5.47;;;;;;;12.02;100.00;101682.25;5043951;28;20096;-64
2024/03/19 09:01:14;;;;;;;20.98;6.10;;;;;;;12.01;100.00;101680.47;5044607;28;20026;-64
2024/03/19 09:03:40;;;;;;;19.50;5.30;;;;;;;12.10;100.00;101683.22;5044917;28;20134;-63
2024/03/19 09:06:06;;;;;;;19.90;5.57;;;;;;;12.34;100.00;101673.75;5043364;28;20130;-64
2024/03/19 09:08:31;;;;;;;17.95;5.10;;;;;;;12.68;100.00;101674.97;5046145;28;20043;-64
2024/03/19 09:10:56;;;;;;;19.77;5.10;;;;;;;12.96;100.00;101672.56;5042757;28;20033;-64
2024/03/19 09:13:22;;;;;;;19.25;4.90;;;;;;;13.09;100.00;101676.16;5045403;28;20369;-65
2024/03/19 09:15:48;;;;;;;18.40;4.60;;;;;;;13.11;100.00;101666.47;5043735;28;20025;-64
2024/03/19 09:18:14;;;;;;;17.20;4.32;;;;;;;13.06;100.00;101666.44;5044383;28;20389;-64
2024/03/19 09:20:39;;;;;;;17.90;4.55;;;;;;;13.10;100.00;101666.44;5044471;28;20027;-65
2024/03/19 09:23:05;;;;;;;17.25;4.03;;;;;;;13.10;100.00;101662.03;5043025;28;20369;-64
2024/03/19 09:25:30;;;;;;;14.52;3.75;;;;;;;13.10;100.00;101659.38;5045409;28;20060;-65
2024/03/19 09:27:56;;;;;;;16.63;4.30;;;;;;;13.09;100.00;101668.19;5042473;28;20033;-63
2024/03/19 09:30:21;;;;;;;17.88;4.28;;;;;;;13.21;100.00;101676.25;5045231;28;20025;-69
2024/03/19 09:32:47;;;;;;;15.45;3.90;;;;;;;13.45;100.00;101673.78;5043190;28;20473;-67
2024/03/19 09:35:13;;;;;;;16.98;4.20;;;;;;;13.62;100.00;101672.09;5043552;28;20040;-66
2024/03/19 09:37:39;;;;;;;18.73;4.30;;;;;;;13.74;100.00;101676.59;5044514;28;20029;-65
2024/03/19 09:40:08;;;;;;;15.48;4.00;;;;;;;13.89;100.00;101676.66;5042444;28;20029;-64
2024/03/19 09:42:33;;;;;;;14.30;4.18;;;;;;;14.04;100.00;101670.50;5044789;28;20078;-64
2024/03/19 09:44:59;;;;;;;19.30;4.15;;;;;;;14.17;100.00;101673.19;5042061;28;20033;-66
2024/03/19 09:47:26;;;;;;;16.42;3.90;;;;;;;14.25;100.00;101664.34;5045148;28;20029;-66
2024/03/19 09:49:53;;;;;;;13.52;3.50;;;;;;;14.30;100.00;101670.56;5042389;28;20033;-68
2024/03/19 09:52:19;;;;;;;16.17;3.60;;;;;;;14.44;100.00;101667.91;5044382;28;20120;-69
2024/03/19 09:54:45;;;;;;;14.68;3.47;;;;;;;14.52;100.00;101667.03;5043387;28;20051;-67
2024/03/19 09:57:16;;;;;;;13.82;3.40;;;;;;;14.61;100.00;101667.06;5043123;28;20480;-65
2024/03/19 09:59:44;;;;;;;14.85;3.50;;;;;;;14.86;100.00;101656.44;5043661;28;20044;-67
2024/03/19 10:02:20;;;;;;;12.98;3.40;;;;;;;15.72;100.00;101663.38;5043088;28;20025;-64
2024/03/19 10:04:48;;;;;;;13.43;3.20;;;;;;;16.18;100.00;101655.16;5042892;28;20411;-64
2024/03/19 10:07:21;;;;;;;13.77;3.08;;;;;;;16.12;100.00;101661.44;5043112;28;20113;-64
2024/03/19 10:09:47;;;;;;;11.00;2.92;;;;;;;16.37;100.00;101662.16;5042826;28;20032;-67
2024/03/19 10:12:14;;;;;;;12.43;2.75;;;;;;;16.57;100.00;101653.09;5041761;28;20124;-64
2024/03/19 10:14:39;;;;;;;13.52;2.70;;;;;;;16.99;100.00;101653.66;5043510;28;20036;-67
2024/03/19 10:17:07;;;;;;;11.15;2.65;;;;;;;17.55;100.00;101651.28;5042188;28;20033;-64
2024/03/19 10:19:33;;;;;;;13.43;2.80;;;;;;;17.88;100.00;101645.53;5044648;28;20033;-64
2024/03/19 10:22:01;;;;;;;13.80;2.90;;;;;;;17.94;100.00;101633.00;5041279;28;20385;-65
2024/03/19 10:24:26;;;;;;;13.00;2.88;;;;;;;17.82;100.00;101637.59;5036533;28;20060;-64
2024/03/19 10:26:54;;;;;;;13.32;2.80;;;;;;;18.00;100.00;101634.72;5043966;28;20384;-64
2024/03/19 10:29:20;;;;;;;14.25;2.90;;;;;;;18.15;100.00;101633.59;5042018;28;20430;-65
2024/03/19 10:31:48;;;;;;;15.80;2.90;;;;;;;18.04;100.00;101635.53;5043412;28;20025;-66
2024/03/19 10:34:18;;;;;;;13.02;2.80;;;;;;;17.87;100.00;101643.78;5042676;28;20028;-64
2024/03/19 10:36:52;;;;;;;12.45;2.60;;;;;;;18.23;100.00;101636.16;5041346;28;20482;-64
2024/03/19 10:39:22;;;;;;;13.05;2.95;;;;;;;18.93;100.00;101619.84;5041990;28;20063;-64
2024/03/19 10:41:51;;;;;;;14.05;3.03;;;;;;;19.49;100.00;101633.09;5042060;28;20388;-63
2024/03/19 10:44:18;;;;;;;15.10;2.85;;;;;;;20.40;100.00;101627.53;5042348;28;20021;-65
2024/03/19 10:46:45;;;;;;;12.73;2.97;;;;;;;20.47;100.00;101624.66;5042532;28;20025;-65
2024/03/19 10:49:18;;;;;;;16.60;2.90;;;;;;;20.51;100.00;101629.03;5041892;28;20104;-64
2024/03/19 10:51:51;;;;;;;15.10;2.90;;;;;;;21.51;100.00;101627.31;5042653;28;20033;-75
2024/03/19 10:54:19;;;;;;;13.45;2.90;;;;;;;21.05;100.00;101621.41;5042000;28;20072;-74
2024/03/19 10:56:45;;;;;;;16.58;2.90;;;;;;;21.45;100.00;101619.41;5042466;28;20064;-74
2024/03/19 10:59:15;;;;;;;15.27;3.15;;;;;;;21.52;100.00;101618.34;5042922;28;20478;-71
2024/03/19 11:01:49;;;;;;;12.27;3.05;;;;;;;20.85;100.00;101616.56;5042026;28;20064;-68
2024/03/19 11:04:15;;;;;;;15.30;2.95;;;;;;;20.35;100.00;101620.47;5042380;28;20040;-68